Alumbrera, Argentina
Current Conditions -  °F | °C
As of 2:00 AM on Sunday 23 Nov 2014 (Local Time) from SANT Reporting Station
Clear Clear  
Wind Chill: 20°   Ceiling: Unl
Heat Index: 20°   Visibility: 6mi
Dew Point: 15°   Wind: 7mph
Humidity: 73%   Direction: 360°N
Pressure: 29.91"   Gusts: NA
Location:  27.52°S, 66.03°W
Report Text: SANT 230500Z 36006KT CAVOK 20/15 Q1013
Loading
Personal Weather Stations






























Interactive Weather Map New forecast layout! Learn more

10-Day Weather Forecast

Advertisements
Track Severe Weather on mobile